sensor_id;sensor_type;location;lat;lon;timestamp;temperature;humidity
64599;SHT31;51008;51.504;11.548;2024-01-25T00:04:20;7.37;81.89
64599;SHT31;51008;51.504;11.548;2024-01-25T00:09:21;7.31;82.08
64599;SHT31;51008;51.504;11.548;2024-01-25T00:14:22;7.27;82.26
64599;SHT31;51008;51.504;11.548;2024-01-25T00:19:23;7.22;82.84
64599;SHT31;51008;51.504;11.548;2024-01-25T00:24:26;7.22;82.57
64599;SHT31;51008;51.504;11.548;2024-01-25T00:29:27;7.14;82.72
64599;SHT31;51008;51.504;11.548;2024-01-25T00:34:28;7.12;83.09
64599;SHT31;51008;51.504;11.548;2024-01-25T00:39:32;7.06;83.23
64599;SHT31;51008;51.504;11.548;2024-01-25T00:44:33;7.12;83.24
64599;SHT31;51008;51.504;11.548;2024-01-25T00:49:35;7.06;83.60
64599;SHT31;51008;51.504;11.548;2024-01-25T00:54:36;7.09;83.59
64599;SHT31;51008;51.504;11.548;2024-01-25T00:59:38;7.07;83.47
64599;SHT31;51008;51.504;11.548;2024-01-25T01:04:40;7.14;83.25
64599;SHT31;51008;51.504;11.548;2024-01-25T01:09:41;7.13;83.41
64599;SHT31;51008;51.504;11.548;2024-01-25T01:14:43;7.10;83.00
64599;SHT31;51008;51.504;11.548;2024-01-25T01:19:44;7.06;82.96
64599;SHT31;51008;51.504;11.548;2024-01-25T01:24:45;6.97;83.63
64599;SHT31;51008;51.504;11.548;2024-01-25T01:29:46;6.95;82.26
64599;SHT31;51008;51.504;11.548;2024-01-25T01:34:47;6.89;82.26
64599;SHT31;51008;51.504;11.548;2024-01-25T01:39:48;7.02;80.52
64599;SHT31;51008;51.504;11.548;2024-01-25T01:44:50;7.00;80.40
64599;SHT31;51008;51.504;11.548;2024-01-25T01:49:53;6.96;80.31
64599;SHT31;51008;51.504;11.548;2024-01-25T01:54:54;6.91;81.32
64599;SHT31;51008;51.504;11.548;2024-01-25T01:59:57;6.79;82.43
64599;SHT31;51008;51.504;11.548;2024-01-25T02:05:00;6.77;82.67
64599;SHT31;51008;51.504;11.548;2024-01-25T02:10:01;6.74;82.60
64599;SHT31;51008;51.504;11.548;2024-01-25T02:15:02;6.69;82.64
64599;SHT31;51008;51.504;11.548;2024-01-25T02:20:04;6.57;82.57
64599;SHT31;51008;51.504;11.548;2024-01-25T02:25:09;6.51;83.05
64599;SHT31;51008;51.504;11.548;2024-01-25T02:30:11;6.51;83.67
64599;SHT31;51008;51.504;11.548;2024-01-25T02:35:12;6.51;84.51
64599;SHT31;51008;51.504;11.548;2024-01-25T02:40:14;6.45;84.80
64599;SHT31;51008;51.504;11.548;2024-01-25T02:45:15;6.44;86.23
64599;SHT31;51008;51.504;11.548;2024-01-25T02:50:16;6.40;86.59
64599;SHT31;51008;51.504;11.548;2024-01-25T02:55:20;6.33;86.98
64599;SHT31;51008;51.504;11.548;2024-01-25T03:00:21;6.34;87.28
64599;SHT31;51008;51.504;11.548;2024-01-25T03:05:23;6.25;88.00
64599;SHT31;51008;51.504;11.548;2024-01-25T03:10:24;6.20;88.11
64599;SHT31;51008;51.504;11.548;2024-01-25T03:15:25;6.17;88.16
64599;SHT31;51008;51.504;11.548;2024-01-25T03:20:26;6.13;87.79
64599;SHT31;51008;51.504;11.548;2024-01-25T03:25:27;6.08;87.62
64599;SHT31;51008;51.504;11.548;2024-01-25T03:30:28;6.06;87.93
64599;SHT31;51008;51.504;11.548;2024-01-25T03:35:29;6.06;88.25
64599;SHT31;51008;51.504;11.548;2024-01-25T03:40:30;5.94;88.52
64599;SHT31;51008;51.504;11.548;2024-01-25T03:45:31;5.82;89.39
64599;SHT31;51008;51.504;11.548;2024-01-25T03:50:32;5.84;89.78
64599;SHT31;51008;51.504;11.548;2024-01-25T03:55:33;5.77;90.18
64599;SHT31;51008;51.504;11.548;2024-01-25T04:00:34;5.72;89.65
64599;SHT31;51008;51.504;11.548;2024-01-25T04:05:36;5.71;89.33
64599;SHT31;51008;51.504;11.548;2024-01-25T04:10:37;5.74;89.46
64599;SHT31;51008;51.504;11.548;2024-01-25T04:15:38;5.75;88.69
64599;SHT31;51008;51.504;11.548;2024-01-25T04:20:40;5.81;88.68
64599;SHT31;51008;51.504;11.548;2024-01-25T04:25:42;5.94;88.73
64599;SHT31;51008;51.504;11.548;2024-01-25T04:30:43;6.02;87.84
64599;SHT31;51008;51.504;11.548;2024-01-25T04:35:44;6.06;87.55
64599;SHT31;51008;51.504;11.548;2024-01-25T04:40:45;6.06;87.89
64599;SHT31;51008;51.504;11.548;2024-01-25T04:45:46;6.08;86.79
64599;SHT31;51008;51.504;11.548;2024-01-25T04:50:47;6.10;85.51
64599;SHT31;51008;51.504;11.548;2024-01-25T04:55:48;6.26;82.92
64599;SHT31;51008;51.504;11.548;2024-01-25T05:00:49;6.48;80.89
64599;SHT31;51008;51.504;11.548;2024-01-25T05:05:50;6.68;79.42
64599;SHT31;51008;51.504;11.548;2024-01-25T05:10:51;6.85;78.35
64599;SHT31;51008;51.504;11.548;2024-01-25T05:15:52;6.91;77.67
64599;SHT31;51008;51.504;11.548;2024-01-25T05:20:53;7.02;76.94
64599;SHT31;51008;51.504;11.548;2024-01-25T05:25:54;6.97;77.09
64599;SHT31;51008;51.504;11.548;2024-01-25T05:30:55;6.99;77.16
64599;SHT31;51008;51.504;11.548;2024-01-25T05:35:56;6.96;76.86
64599;SHT31;51008;51.504;11.548;2024-01-25T05:40:58;6.92;77.11
64599;SHT31;51008;51.504;11.548;2024-01-25T05:45:59;6.96;76.80
64599;SHT31;51008;51.504;11.548;2024-01-25T05:51:00;6.99;76.74
64599;SHT31;51008;51.504;11.548;2024-01-25T05:56:01;7.09;75.91
64599;SHT31;51008;51.504;11.548;2024-01-25T06:01:02;7.10;75.91
64599;SHT31;51008;51.504;11.548;2024-01-25T06:06:03;7.06;76.16
64599;SHT31;51008;51.504;11.548;2024-01-25T06:11:04;7.10;75.58
64599;SHT31;51008;51.504;11.548;2024-01-25T06:16:05;7.13;76.06
64599;SHT31;51008;51.504;11.548;2024-01-25T06:21:06;7.13;75.89
64599;SHT31;51008;51.504;11.548;2024-01-25T06:26:07;7.06;76.08
64599;SHT31;51008;51.504;11.548;2024-01-25T06:31:08;7.17;75.65
64599;SHT31;51008;51.504;11.548;2024-01-25T06:36:09;7.10;76.11
64599;SHT31;51008;51.504;11.548;2024-01-25T06:41:11;7.12;75.76
64599;SHT31;51008;51.504;11.548;2024-01-25T06:46:12;7.10;75.69
64599;SHT31;51008;51.504;11.548;2024-01-25T06:51:13;7.02;76.87
64599;SHT31;51008;51.504;11.548;2024-01-25T06:56:34;6.85;78.14
64599;SHT31;51008;51.504;11.548;2024-01-25T07:01:35;6.68;81.45
64599;SHT31;51008;51.504;11.548;2024-01-25T07:06:36;6.52;82.95
64599;SHT31;51008;51.504;11.548;2024-01-25T07:11:37;6.45;83.25
64599;SHT31;51008;51.504;11.548;2024-01-25T07:16:38;6.37;84.15
64599;SHT31;51008;51.504;11.548;2024-01-25T07:21:39;6.33;84.22
64599;SHT31;51008;51.504;11.548;2024-01-25T07:26:40;6.30;84.82
64599;SHT31;51008;51.504;11.548;2024-01-25T07:31:41;6.22;85.18
64599;SHT31;51008;51.504;11.548;2024-01-25T07:36:42;6.22;85.34
64599;SHT31;51008;51.504;11.548;2024-01-25T07:41:43;6.23;84.81
64599;SHT31;51008;51.504;11.548;2024-01-25T07:46:44;6.23;84.58
64599;SHT31;51008;51.504;11.548;2024-01-25T07:51:45;6.34;84.25
64599;SHT31;51008;51.504;11.548;2024-01-25T07:56:47;6.41;84.15
64599;SHT31;51008;51.504;11.548;2024-01-25T08:01:49;6.43;83.80
64599;SHT31;51008;51.504;11.548;2024-01-25T08:06:52;6.68;83.42
64599;SHT31;51008;51.504;11.548;2024-01-25T08:11:54;6.88;83.11
64599;SHT31;51008;51.504;11.548;2024-01-25T08:16:55;6.86;82.81
64599;SHT31;51008;51.504;11.548;2024-01-25T08:21:56;6.81;82.70
64599;SHT31;51008;51.504;11.548;2024-01-25T08:26:57;6.86;83.18
64599;SHT31;51008;51.504;11.548;2024-01-25T08:31:58;6.91;83.42
64599;SHT31;51008;51.504;11.548;2024-01-25T08:37:00;6.97;83.82
64599;SHT31;51008;51.504;11.548;2024-01-25T08:42:02;6.96;83.96
64599;SHT31;51008;51.504;11.548;2024-01-25T08:47:03;7.03;83.93
64599;SHT31;51008;51.504;11.548;2024-01-25T08:52:04;7.10;83.85
64599;SHT31;51008;51.504;11.548;2024-01-25T08:57:05;7.20;83.64
64599;SHT31;51008;51.504;11.548;2024-01-25T09:02:06;7.43;83.27
64599;SHT31;51008;51.504;11.548;2024-01-25T09:07:07;7.55;82.02
64599;SHT31;51008;51.504;11.548;2024-01-25T09:12:08;7.78;82.42
64599;SHT31;51008;51.504;11.548;2024-01-25T09:17:09;7.76;82.64
64599;SHT31;51008;51.504;11.548;2024-01-25T09:22:10;8.04;81.95
64599;SHT31;51008;51.504;11.548;2024-01-25T09:27:12;8.28;81.10
64599;SHT31;51008;51.504;11.548;2024-01-25T09:32:13;8.09;81.20
64599;SHT31;51008;51.504;11.548;2024-01-25T09:37:14;7.92;80.69
64599;SHT31;51008;51.504;11.548;2024-01-25T09:42:15;8.27;79.53
64599;SHT31;51008;51.504;11.548;2024-01-25T09:47:16;8.91;78.54
64599;SHT31;51008;51.504;11.548;2024-01-25T09:52:19;9.59;75.63
64599;SHT31;51008;51.504;11.548;2024-01-25T09:57:24;10.17;76.02
64599;SHT31;51008;51.504;11.548;2024-01-25T10:02:26;10.18;73.78
64599;SHT31;51008;51.504;11.548;2024-01-25T10:07:41;10.38;74.50
64599;SHT31;51008;51.504;11.548;2024-01-25T10:12:42;10.21;74.75
64599;SHT31;51008;51.504;11.548;2024-01-25T10:17:43;10.00;75.73
64599;SHT31;51008;51.504;11.548;2024-01-25T10:22:45;9.68;74.79
64599;SHT31;51008;51.504;11.548;2024-01-25T10:27:46;9.44;75.96
64599;SHT31;51008;51.504;11.548;2024-01-25T10:32:48;9.20;77.37
64599;SHT31;51008;51.504;11.548;2024-01-25T10:37:51;9.01;77.67
64599;SHT31;51008;51.504;11.548;2024-01-25T10:42:52;8.91;77.48
64599;SHT31;51008;51.504;11.548;2024-01-25T10:47:53;8.65;78.16
64599;SHT31;51008;51.504;11.548;2024-01-25T10:52:55;9.06;78.63
64599;SHT31;51008;51.504;11.548;2024-01-25T10:58:13;9.44;75.90
64599;SHT31;51008;51.504;11.548;2024-01-25T11:03:14;9.85;75.30
64599;SHT31;51008;51.504;11.548;2024-01-25T11:08:19;9.65;74.95
64599;SHT31;51008;51.504;11.548;2024-01-25T11:13:26;10.01;75.82
64599;SHT31;51008;51.504;11.548;2024-01-25T11:18:27;10.27;73.78
64599;SHT31;51008;51.504;11.548;2024-01-25T11:23:31;10.21;73.08
64599;SHT31;51008;51.504;11.548;2024-01-25T11:28:32;10.20;73.13
64599;SHT31;51008;51.504;11.548;2024-01-25T11:33:33;10.25;73.86
64599;SHT31;51008;51.504;11.548;2024-01-25T11:38:36;10.44;73.45
64599;SHT31;51008;51.504;11.548;2024-01-25T11:43:56;10.06;72.66
64599;SHT31;51008;51.504;11.548;2024-01-25T11:48:58;9.65;74.24
64599;SHT31;51008;51.504;11.548;2024-01-25T11:54:18;9.63;75.68
64599;SHT31;51008;51.504;11.548;2024-01-25T11:59:19;9.39;74.38
64599;SHT31;51008;51.504;11.548;2024-01-25T12:04:20;9.18;76.33
64599;SHT31;51008;51.504;11.548;2024-01-25T12:09:21;9.01;76.06
64599;SHT31;51008;51.504;11.548;2024-01-25T12:14:24;9.03;76.69
64599;SHT31;51008;51.504;11.548;2024-01-25T12:19:25;9.07;76.32
64599;SHT31;51008;51.504;11.548;2024-01-25T12:24:26;9.38;75.71
64599;SHT31;51008;51.504;11.548;2024-01-25T12:29:27;9.41;74.52
64599;SHT31;51008;51.504;11.548;2024-01-25T12:34:28;9.38;74.84
64599;SHT31;51008;51.504;11.548;2024-01-25T12:39:29;9.21;74.54
64599;SHT31;51008;51.504;11.548;2024-01-25T12:44:30;8.76;76.33
64599;SHT31;51008;51.504;11.548;2024-01-25T12:49:31;8.61;77.40
64599;SHT31;51008;51.504;11.548;2024-01-25T12:54:32;8.51;77.12
64599;SHT31;51008;51.504;11.548;2024-01-25T12:59:34;8.30;78.69
64599;SHT31;51008;51.504;11.548;2024-01-25T13:04:35;8.06;79.60
64599;SHT31;51008;51.504;11.548;2024-01-25T13:09:36;7.82;80.36
64599;SHT31;51008;51.504;11.548;2024-01-25T13:14:37;7.67;80.96
64599;SHT31;51008;51.504;11.548;2024-01-25T13:19:39;7.61;81.02
64599;SHT31;51008;51.504;11.548;2024-01-25T13:24:40;7.59;80.91
64599;SHT31;51008;51.504;11.548;2024-01-25T13:29:41;7.55;81.04
64599;SHT31;51008;51.504;11.548;2024-01-25T13:34:42;7.46;81.55
64599;SHT31;51008;51.504;11.548;2024-01-25T13:39:44;7.35;81.70
64599;SHT31;51008;51.504;11.548;2024-01-25T13:44:45;7.34;82.06
64599;SHT31;51008;51.504;11.548;2024-01-25T13:50:06;7.33;82.14
64599;SHT31;51008;51.504;11.548;2024-01-25T13:55:08;7.30;82.34
64599;SHT31;51008;51.504;11.548;2024-01-25T14:00:29;7.31;82.03
64599;SHT31;51008;51.504;11.548;2024-01-25T14:05:30;7.26;82.12
64599;SHT31;51008;51.504;11.548;2024-01-25T14:10:31;7.24;82.52
64599;SHT31;51008;51.504;11.548;2024-01-25T14:15:32;7.23;82.21
64599;SHT31;51008;51.504;11.548;2024-01-25T14:20:33;7.24;82.45
64599;SHT31;51008;51.504;11.548;2024-01-25T14:25:54;7.19;82.62
64599;SHT31;51008;51.504;11.548;2024-01-25T14:30:55;7.14;82.48
64599;SHT31;51008;51.504;11.548;2024-01-25T14:35:56;7.07;82.29
64599;SHT31;51008;51.504;11.548;2024-01-25T14:41:10;6.99;82.74
64599;SHT31;51008;51.504;11.548;2024-01-25T14:46:11;6.81;83.24
64599;SHT31;51008;51.504;11.548;2024-01-25T14:51:13;6.72;83.33
64599;SHT31;51008;51.504;11.548;2024-01-25T14:56:14;6.67;83.55
64599;SHT31;51008;51.504;11.548;2024-01-25T15:01:16;6.67;83.61
64599;SHT31;51008;51.504;11.548;2024-01-25T15:06:17;6.64;83.60
64599;SHT31;51008;51.504;11.548;2024-01-25T15:11:18;6.58;83.91
64599;SHT31;51008;51.504;11.548;2024-01-25T15:16:19;6.48;84.19
64599;SHT31;51008;51.504;11.548;2024-01-25T15:21:33;6.40;84.44
64599;SHT31;51008;51.504;11.548;2024-01-25T15:26:34;6.34;84.76
64599;SHT31;51008;51.504;11.548;2024-01-25T15:31:35;6.23;85.29
64599;SHT31;51008;51.504;11.548;2024-01-25T15:36:36;6.13;85.66
64599;SHT31;51008;51.504;11.548;2024-01-25T15:41:38;6.09;85.84
64599;SHT31;51008;51.504;11.548;2024-01-25T15:46:39;6.08;86.03
64599;SHT31;51008;51.504;11.548;2024-01-25T15:51:40;6.01;86.42
64599;SHT31;51008;51.504;11.548;2024-01-25T15:56:57;5.98;86.53
64599;SHT31;51008;51.504;11.548;2024-01-25T16:01:58;5.91;86.58
64599;SHT31;51008;51.504;11.548;2024-01-25T16:07:00;5.88;86.70
64599;SHT31;51008;51.504;11.548;2024-01-25T16:12:00;5.78;87.05
64599;SHT31;51008;51.504;11.548;2024-01-25T16:17:02;5.77;86.57
64599;SHT31;51008;51.504;11.548;2024-01-25T16:22:03;5.78;86.02
64599;SHT31;51008;51.504;11.548;2024-01-25T16:27:04;5.79;85.46
64599;SHT31;51008;51.504;11.548;2024-01-25T16:32:05;5.82;85.09
64599;SHT31;51008;51.504;11.548;2024-01-25T16:37:07;5.81;84.80
64599;SHT31;51008;51.504;11.548;2024-01-25T16:42:08;5.78;84.83
64599;SHT31;51008;51.504;11.548;2024-01-25T16:47:09;5.77;84.72
64599;SHT31;51008;51.504;11.548;2024-01-25T16:52:10;5.74;84.93
64599;SHT31;51008;51.504;11.548;2024-01-25T16:57:11;5.68;85.10
64599;SHT31;51008;51.504;11.548;2024-01-25T17:02:12;5.65;85.21
64599;SHT31;51008;51.504;11.548;2024-01-25T17:07:13;5.55;85.63
64599;SHT31;51008;51.504;11.548;2024-01-25T17:12:14;5.46;86.22
64599;SHT31;51008;51.504;11.548;2024-01-25T17:17:15;5.29;86.47
64599;SHT31;51008;51.504;11.548;2024-01-25T17:22:16;5.23;86.94
64599;SHT31;51008;51.504;11.548;2024-01-25T17:27:17;5.12;87.01
64599;SHT31;51008;51.504;11.548;2024-01-25T17:32:18;5.04;87.32
64599;SHT31;51008;51.504;11.548;2024-01-25T17:37:19;5.08;87.06
64599;SHT31;51008;51.504;11.548;2024-01-25T17:42:20;5.09;87.03
64599;SHT31;51008;51.504;11.548;2024-01-25T17:47:21;4.96;86.86
64599;SHT31;51008;51.504;11.548;2024-01-25T17:52:22;4.87;86.84
64599;SHT31;51008;51.504;11.548;2024-01-25T17:57:23;4.87;87.08
64599;SHT31;51008;51.504;11.548;2024-01-25T18:02:24;4.81;86.99
64599;SHT31;51008;51.504;11.548;2024-01-25T18:07:44;4.71;87.01
64599;SHT31;51008;51.504;11.548;2024-01-25T18:12:45;4.63;87.37
64599;SHT31;51008;51.504;11.548;2024-01-25T18:17:46;4.57;87.62
64599;SHT31;51008;51.504;11.548;2024-01-25T18:22:47;4.45;87.83
64599;SHT31;51008;51.504;11.548;2024-01-25T18:27:48;4.32;88.11
64599;SHT31;51008;51.504;11.548;2024-01-25T18:32:49;4.22;88.63
64599;SHT31;51008;51.504;11.548;2024-01-25T18:37:50;4.09;89.83
64599;SHT31;51008;51.504;11.548;2024-01-25T18:42:51;3.98;89.60
64599;SHT31;51008;51.504;11.548;2024-01-25T18:47:52;3.81;89.62
64599;SHT31;51008;51.504;11.548;2024-01-25T18:52:53;3.66;89.87
64599;SHT31;51008;51.504;11.548;2024-01-25T18:57:55;3.52;90.05
64599;SHT31;51008;51.504;11.548;2024-01-25T19:02:59;3.31;90.64
64599;SHT31;51008;51.504;11.548;2024-01-25T19:08:00;3.22;90.84
64599;SHT31;51008;51.504;11.548;2024-01-25T19:13:01;3.12;92.39
64599;SHT31;51008;51.504;11.548;2024-01-25T19:18:04;3.18;93.51
64599;SHT31;51008;51.504;11.548;2024-01-25T19:23:05;3.16;93.32
64599;SHT31;51008;51.504;11.548;2024-01-25T19:28:06;3.21;93.25
64599;SHT31;51008;51.504;11.548;2024-01-25T19:33:07;3.19;92.99
64599;SHT31;51008;51.504;11.548;2024-01-25T19:38:08;3.15;93.35
64599;SHT31;51008;51.504;11.548;2024-01-25T19:43:10;3.14;92.88
64599;SHT31;51008;51.504;11.548;2024-01-25T19:48:11;3.09;92.92
64599;SHT31;51008;51.504;11.548;2024-01-25T19:53:12;3.11;93.39
64599;SHT31;51008;51.504;11.548;2024-01-25T19:58:13;3.07;93.37
64599;SHT31;51008;51.504;11.548;2024-01-25T20:03:15;3.04;93.45
64599;SHT31;51008;51.504;11.548;2024-01-25T20:08:16;3.09;93.68
64599;SHT31;51008;51.504;11.548;2024-01-25T20:13:17;3.05;93.96
64599;SHT31;51008;51.504;11.548;2024-01-25T20:18:18;3.18;94.10
64599;SHT31;51008;51.504;11.548;2024-01-25T20:23:19;3.26;93.87
64599;SHT31;51008;51.504;11.548;2024-01-25T20:28:20;3.36;93.71
64599;SHT31;51008;51.504;11.548;2024-01-25T20:33:21;3.52;93.56
64599;SHT31;51008;51.504;11.548;2024-01-25T20:38:22;3.69;93.37
64599;SHT31;51008;51.504;11.548;2024-01-25T20:43:23;3.93;92.72
64599;SHT31;51008;51.504;11.548;2024-01-25T20:48:24;3.94;92.82
64599;SHT31;51008;51.504;11.548;2024-01-25T20:53:25;3.97;92.64
64599;SHT31;51008;51.504;11.548;2024-01-25T20:58:26;4.02;92.48
64599;SHT31;51008;51.504;11.548;2024-01-25T21:03:28;4.05;92.61
64599;SHT31;51008;51.504;11.548;2024-01-25T21:08:29;4.06;92.51
64599;SHT31;51008;51.504;11.548;2024-01-25T21:13:30;4.02;92.44
64599;SHT31;51008;51.504;11.548;2024-01-25T21:18:31;3.99;92.48
64599;SHT31;51008;51.504;11.548;2024-01-25T21:23:32;4.01;92.16
64599;SHT31;51008;51.504;11.548;2024-01-25T21:28:33;4.02;91.73
64599;SHT31;51008;51.504;11.548;2024-01-25T21:33:34;4.05;91.76
64599;SHT31;51008;51.504;11.548;2024-01-25T21:38:35;4.11;91.21
64599;SHT31;51008;51.504;11.548;2024-01-25T21:43:36;4.11;91.26
64599;SHT31;51008;51.504;11.548;2024-01-25T21:48:38;4.12;91.30
64599;SHT31;51008;51.504;11.548;2024-01-25T21:53:39;4.09;91.19
64599;SHT31;51008;51.504;11.548;2024-01-25T21:58:40;4.08;91.28
64599;SHT31;51008;51.504;11.548;2024-01-25T22:03:41;4.11;91.05
64599;SHT31;51008;51.504;11.548;2024-01-25T22:08:42;4.16;90.53
64599;SHT31;51008;51.504;11.548;2024-01-25T22:13:43;4.16;90.29
64599;SHT31;51008;51.504;11.548;2024-01-25T22:18:44;4.15;90.26
64599;SHT31;51008;51.504;11.548;2024-01-25T22:23:52;4.21;90.27
64599;SHT31;51008;51.504;11.548;2024-01-25T22:28:57;4.25;90.11
64599;SHT31;51008;51.504;11.548;2024-01-25T22:33:58;4.28;89.79
64599;SHT31;51008;51.504;11.548;2024-01-25T22:39:19;4.35;89.53
64599;SHT31;51008;51.504;11.548;2024-01-25T22:44:20;4.32;89.46
64599;SHT31;51008;51.504;11.548;2024-01-25T22:49:21;4.32;89.32
64599;SHT31;51008;51.504;11.548;2024-01-25T22:54:42;4.33;89.41
64599;SHT31;51008;51.504;11.548;2024-01-25T22:59:43;4.33;89.30
64599;SHT31;51008;51.504;11.548;2024-01-25T23:04:44;4.29;89.38
64599;SHT31;51008;51.504;11.548;2024-01-25T23:09:45;4.28;89.49
64599;SHT31;51008;51.504;11.548;2024-01-25T23:14:46;4.32;89.45
64599;SHT31;51008;51.504;11.548;2024-01-25T23:19:47;4.35;89.39
64599;SHT31;51008;51.504;11.548;2024-01-25T23:24:48;4.35;89.37
64599;SHT31;51008;51.504;11.548;2024-01-25T23:29:49;4.42;88.94
64599;SHT31;51008;51.504;11.548;2024-01-25T23:34:50;4.42;89.31
64599;SHT31;51008;51.504;11.548;2024-01-25T23:39:51;4.36;89.40
64599;SHT31;51008;51.504;11.548;2024-01-25T23:44:52;4.36;89.45
64599;SHT31;51008;51.504;11.548;2024-01-25T23:49:53;4.30;89.34
64599;SHT31;51008;51.504;11.548;2024-01-25T23:54:54;4.30;89.48
64599;SHT31;51008;51.504;11.548;2024-01-25T23:59:55;4.29;89.55
